NWS Home NWS Lubbock West Texas Mesonet North Sector Latest Conditions as of 0205 AM, Thu May 13, 2021

Latest   N   C   S   Daily Sum   3hrΔ   24hrΔ   Soil Data 
Site Map   24hr Precip   72hr Precip   Google Plot


Station Time of Last Temp Dew Pt. RH Wind Direction Wind Speed Wind Gust Max Wind Max Temp Min Temp Max RH Min RH Altimeter 1HR Rain Today's Rain Solar Rad
Adrian 6WSW  02:00 AM 45 39 78% SE1518 21 mph 133° @ 1203 AM 47 45 80 76 30.38" 0 0.00 0
Aiken 3WSW  02:00 AM 45 41 85% E67 12 mph 119° @ 1208 AM 51 45 85 71 30.38" 0 0.00 0
Amarillo 15NNW   02:00 AM 47 39 75% SE77 11 mph 113° @ 0135 AM 49 45 78 70 30.38" 0 0.00 0
Amarillo 7SSE  02:00 AM 41 39 94% SE44 9 mph 119° @ 1246 AM 44 41 100 83 30.39" 0 0.00 0
Amarillo 9NNE  02:00 AM 47 41 79% SE68 15 mph 138° @ 0120 AM 49 47 79 71 30.37" 0 0.00 0
Amherst 1NE  02:00 AM 49 42 78% E1012 16 mph 113° @ 1244 AM 52 49 78 60 30.35" 0 0.00 0
Bootleg 11WNW  02:00 AM 42 40 91% SE1011 12 mph 131° @ 0159 AM 45 42 93 87 30.38" 0 0.00 0
Borger 7E  02:00 AM 45 41 84% S910 12 mph 123° @ 1242 AM 50 45 84 72 30.37" 0 0.00 0
Boys Ranch 1WSW  02:00 AM 46 40 81% S12 7 mph 77° @ 1209 AM 49 45 81 70 30.38" 0 0.00 0
Canadian 6E  02:00 AM 45 41 87% E44 9 mph 81° @ 1220 AM 50 44 88 76 30.34" 0 0.00 0
Caprock Canyons State Park  02:00 AM 48 43 82% SW56 7 mph 180° @ 1224 AM 51 48 82 71 30.38" 0 0.00 0
Childress 2NNE  02:00 AM 51 45 82% SE66 10 mph 104° @ 1230 AM 52 51 82 76 30.35" 0 0.00 0
Clarendon 2WSW  02:00 AM 46 41 84% SE77 8 mph 133° @ 0145 AM 50 46 84 75 30.37" 0 0.00 0
Claude 12SW  02:00 AM 45 40 84% E77 13 mph 111° @ 1245 AM 48 45 84 75 30.37" 0 0.00 0
Dimmitt 2NE  02:00 AM 45 40 83% SE78 15 mph 110° @ 1230 AM 49 45 83 72 30.37" 0 0.00 0
Dozier 3W  02:00 AM 49 43 80% N12 9 mph 68° @ 1240 AM 56 49 81 67 30.37" 0 0.00 0
Earth 9WSW  02:00 AM 48 40 75% E1114 14 mph 110° @ 0200 AM 50 46 75 66 30.36" 0 0.00 0
Endee NM 2SW  02:00 AM 47 41 79% SE67 12 mph 128° @ 1230 AM 50 45 85 73 30.37" 0 0.00 0
Estelline 3SSE  02:00 AM 48 43 84% W22 7 mph 123° @ 1204 AM 54 47 85 68 30.36" 0 0.00 0
Floydada 2NNE  02:00 AM 45 42 91% SE66 14 mph 109° @ 1210 AM 49 44 91 81 30.36" 0 0.00 0
Friona 2NE  02:00 AM 46 40 79% SE1113 14 mph 114° @ 0150 AM 47 45 79 76 30.38" 0 0.00 0
Fritch 1WNW  02:00 AM 48 39 73% SE34 14 mph 123° @ 1252 AM 51 48 73 65 30.38" 0 0.00 0
Goodlett 3W  02:00 AM 50 45 87% NE44 7 mph 105° @ 1210 AM 52 50 87 82 30.34" 0 0.00 0
Goodnight  02:00 AM 46 41 83% SE66 13 mph 124° @ 1208 AM 49 46 84 75 30.39" 0 0.00 0
Happy 1E  02:00 AM 42 39 89% SE78 13 mph 121° @ 1243 AM 47 42 89 76 30.39" 0 0.00 0
Hart 3N  02:00 AM 45 40 84% E79 14 mph 104° @ 1220 AM 49 45 84 70 30.37" 0 0.00 0
Hereford 2NW  02:00 AM 48 40 76% SE712 12 mph 124° @ 0140 AM 49 48 76 72 30.37" 0 0.00 0
Lake McClellan 2NW  02:00 AM 48 41 76% SE67 10 mph 72° @ 1203 AM 50 48 77 72 30.38" 0 0.00 0
Lesley 2S  02:00 AM 51 42 72% NE34 8 mph 76° @ 1210 AM 52 51 73 68 30.36" 0 0.00 0
McLean 1E  02:00 AM 48 42 80% SE56 12 mph 86° @ 1215 AM 53 48 80 69 30.35" 0 0.00 0
Memphis 1NE  02:00 AM 49 41 74% NW12 4 mph 75° @ 1255 AM 52 49 76 68 30.37" 0 0.00 0
Muleshoe 2SSW  02:00 AM 45 39 79% E89 11 mph 81° @ 0155 AM 50 45 80 68 30.35" 0 0.00 0
Northfield 1S  02:00 AM 48 44 89% W22 8 mph 125° @ 1230 AM 52 47 89 76 30.36" 0 0.00 0
Odell 4ENE  02:00 AM 47 45 93% N22 6 mph 359° @ 0139 AM 52 47 93 87 30.35" 0 0.00 0
Olton 6S  02:00 AM 45 40 87% SE78 13 mph 121° @ 1235 AM 50 45 87 68 30.35" 0 0.00 0
Palo Duro 4E (JA Ranch)  02:00 AM 42 40 92% N00 6 mph 106° @ 1201 AM 50 41 93 71 30.38" 0 0.00 0
Palo Duro Canyon SP Floor  02:00 AM 49 41 74% SE34 11 mph 132° @ 1212 AM 54 49 74 62 30.37" 0 0.00 0
Palo Duro Canyon State Park Rim  02:00 AM 49 40 71% SE44 15 mph 136° @ 1229 AM 51 49 71 62 30.39" 0 0.00 0
Palo Duro Reservoir 1NW   02:00 AM 49 41 73% S57 10 mph 152° @ 0105 AM 50 48 76 71 30.37" 0 0.00 0
Pampa 2E  02:00 AM 44 41 88% SE67 10 mph 112° @ 1210 AM 49 44 88 78 30.36" 0 0.00 0
Panhandle 1SSW  02:00 AM 42 40 91% SE55 10 mph 119° @ 1251 AM 47 42 91 82 30.39" 0 0.00 0
Plainview 1S  02:00 AM 47 42 83% E45 14 mph 121° @ 1219 AM 51 47 83 68 30.37" 0 0.00 0
Romero 11SSW  02:00 AM 48 41 77% E45 8 mph 50° @ 1212 AM 48 44 85 77 30.37" 0 0.00 0
Silverton 7ESE  02:00 AM 43 41 93% SE77 11 mph 113° @ 1205 AM 49 43 93 78 30.36" 0 0.00 0
South Plains 3ENE  02:00 AM 43 42 94% SE44 12 mph 106° @ 1201 AM 51 43 95 75 30.37" 0 0.00 0
Stinnett 1NNW  02:00 AM 47 39 74% S68 8 mph 93° @ 1218 AM 48 47 76 73 30.38" 0 0.00 0
Stratford 4WNW  02:00 AM 45 41 85% S89 10 mph 154° @ 0108 AM 45 42 88 83 30.37" 0 0.00 0
Tulia 2ENE  02:00 AM 44 39 84% SE57 9 mph 98° @ 1220 AM 47 44 84 74 30.37" 0 0.00 0
Turkey 2WSW  02:00 AM 51 43 77% S34 8 mph 113° @ 1215 AM 52 49 79 71 30.36" 0 0.00 0
Umbarger 3NNE  02:00 AM 44 40 86% SE810 14 mph 121° @ 1234 AM 46 43 86 80 30.38" 0 0.00 0
Vega 4E  02:00 AM 46 39 78% SE910 16 mph 121° @ 0157 AM 48 44 80 72 30.39" 0 0.00 0
Vigo Park  02:00 AM 43 40 88% SE77 11 mph 108° @ 1244 AM 48 43 89 77 30.38" 0 0.00 0
Wellington 6SE  02:00 AM 49 42 76% NE55 9 mph 67° @ 1243 AM 53 48 76 65 30.35" 0 0.00 0

West Texas Mesonet Home   Site Map/Menu  NWS Lubbock Soil Data  Daily Summary Page  24hr Precip  72hr Precip  Google Plot